Ord, Nebraska
Current Conditions -  °F | °C
As of 4:53 AM on Monday 20 Oct 2014 (Local Time) from KODX Reporting Station
Clear Clear  
Wind Chill: 40°   Ceiling: Unl
Heat Index: 40°   Visibility: NA
Dew Point: 36°   Wind: 3mph
Humidity: 86%   Direction: 320°NW
Pressure: 30.06"   Gusts: NA
Location:  41.6°N, 98.93°W
Report Text: KODX 200953Z AUTO 32003KT CLR 04/02 A3006 RMK AO2 SLP180 T00440022 $
Loading
Personal Weather Stations






























Interactive Weather Map
Tropical Storm Tracking
New forecast layout! Learn more

10-Day Weather Forecast

Advertisements
Track Severe Weather on mobile